sensor_id;sensor_type;location;lat;lon;timestamp;noise_LAeq;noise_LA_min;noise_LA_max;noise_LA01;noise_LA95
67308;Laerm;57662;51.436;5.978;2023-04-25T00:00:04;39.67;37.25;43.60;;
67308;Laerm;57662;51.436;5.978;2023-04-25T00:00:17;44.02;37.07;55.23;;
67308;Laerm;57662;51.436;5.978;2023-04-25T00:00:27;39.54;37.37;43.20;;
67308;Laerm;57662;51.436;5.978;2023-04-25T00:00:37;39.64;36.49;45.93;;
67308;Laerm;57662;51.436;5.978;2023-04-25T00:00:48;39.31;37.36;41.39;;
67308;Laerm;57662;51.436;5.978;2023-04-25T00:00:58;39.27;37.52;40.85;;
67308;Laerm;57662;51.436;5.978;2023-04-25T00:01:08;39.20;36.39;40.83;;
67308;Laerm;57662;51.436;5.978;2023-04-25T00:01:19;39.13;36.72;40.70;;
67308;Laerm;57662;51.436;5.978;2023-04-25T00:01:30;39.33;36.89;43.77;;
67308;Laerm;57662;51.436;5.978;2023-04-25T00:01:40;38.94;36.52;40.90;;
67308;Laerm;57662;51.436;5.978;2023-04-25T00:01:50;39.13;36.77;43.06;;
67308;Laerm;57662;51.436;5.978;2023-04-25T00:02:01;39.06;36.95;41.07;;
67308;Laerm;57662;51.436;5.978;2023-04-25T00:02:12;39.50;37.03;46.75;;
67308;Laerm;57662;51.436;5.978;2023-04-25T00:02:23;38.98;36.83;41.32;;
67308;Laerm;57662;51.436;5.978;2023-04-25T00:02:34;39.01;36.11;40.68;;
67308;Laerm;57662;51.436;5.978;2023-04-25T00:02:45;38.89;36.62;40.63;;
67308;Laerm;57662;51.436;5.978;2023-04-25T00:02:56;39.23;37.08;41.21;;
67308;Laerm;57662;51.436;5.978;2023-04-25T00:03:06;39.25;36.54;41.47;;
67308;Laerm;57662;51.436;5.978;2023-04-25T00:03:19;39.04;36.66;40.88;;
67308;Laerm;57662;51.436;5.978;2023-04-25T00:03:31;39.19;37.29;41.15;;
67308;Laerm;57662;51.436;5.978;2023-04-25T00:03:41;39.05;37.18;40.95;;
67308;Laerm;57662;51.436;5.978;2023-04-25T00:03:52;39.21;36.74;40.57;;
67308;Laerm;57662;51.436;5.978;2023-04-25T00:04:02;39.33;37.37;43.31;;
67308;Laerm;57662;51.436;5.978;2023-04-25T00:04:12;39.15;37.01;41.12;;
67308;Laerm;57662;51.436;5.978;2023-04-25T00:04:23;39.19;37.39;40.90;;
67308;Laerm;57662;51.436;5.978;2023-04-25T00:04:33;39.47;37.30;41.88;;
67308;Laerm;57662;51.436;5.978;2023-04-25T00:04:44;39.39;37.43;41.28;;
67308;Laerm;57662;51.436;5.978;2023-04-25T00:04:54;39.35;37.09;41.55;;
67308;Laerm;57662;51.436;5.978;2023-04-25T00:05:08;38.97;36.79;40.48;;
67308;Laerm;57662;51.436;5.978;2023-04-25T00:05:18;38.90;36.70;40.75;;
67308;Laerm;57662;51.436;5.978;2023-04-25T00:05:29;39.03;36.82;40.96;;
67308;Laerm;57662;51.436;5.978;2023-04-25T00:05:40;39.10;36.60;40.84;;
67308;Laerm;57662;51.436;5.978;2023-04-25T00:05:51;39.09;36.97;41.29;;
67308;Laerm;57662;51.436;5.978;2023-04-25T00:06:01;38.94;36.89;40.61;;
67308;Laerm;57662;51.436;5.978;2023-04-25T00:06:12;39.24;36.73;40.87;;
67308;Laerm;57662;51.436;5.978;2023-04-25T00:06:22;38.90;36.01;40.44;;
67308;Laerm;57662;51.436;5.978;2023-04-25T00:06:36;38.91;36.30;40.48;;
67308;Laerm;57662;51.436;5.978;2023-04-25T00:06:47;39.20;37.39;41.10;;
67308;Laerm;57662;51.436;5.978;2023-04-25T00:06:57;39.38;36.83;43.41;;
67308;Laerm;57662;51.436;5.978;2023-04-25T00:07:08;39.01;36.80;40.89;;
67308;Laerm;57662;51.436;5.978;2023-04-25T00:07:18;38.87;37.04;40.35;;
67308;Laerm;57662;51.436;5.978;2023-04-25T00:07:29;39.27;36.82;41.12;;
67308;Laerm;57662;51.436;5.978;2023-04-25T00:07:39;39.41;36.95;41.27;;
67308;Laerm;57662;51.436;5.978;2023-04-25T00:07:52;39.08;36.79;40.90;;
67308;Laerm;57662;51.436;5.978;2023-04-25T00:08:02;39.13;37.45;40.95;;
67308;Laerm;57662;51.436;5.978;2023-04-25T00:08:13;38.99;36.54;41.03;;
67308;Laerm;57662;51.436;5.978;2023-04-25T00:08:24;39.21;37.14;40.83;;
67308;Laerm;57662;51.436;5.978;2023-04-25T00:08:34;39.23;37.05;40.69;;
67308;Laerm;57662;51.436;5.978;2023-04-25T00:08:45;39.43;37.64;41.36;;
67308;Laerm;57662;51.436;5.978;2023-04-25T00:08:55;39.63;37.58;43.71;;
67308;Laerm;57662;51.436;5.978;2023-04-25T00:09:06;39.71;36.98;42.30;;
67308;Laerm;57662;51.436;5.978;2023-04-25T00:09:21;39.61;37.40;41.96;;
67308;Laerm;57662;51.436;5.978;2023-04-25T00:09:32;39.21;37.40;41.09;;
67308;Laerm;57662;51.436;5.978;2023-04-25T00:09:43;39.53;37.38;41.91;;
67308;Laerm;57662;51.436;5.978;2023-04-25T00:09:53;39.62;37.41;41.26;;
67308;Laerm;57662;51.436;5.978;2023-04-25T00:10:04;39.52;37.35;41.36;;
67308;Laerm;57662;51.436;5.978;2023-04-25T00:10:15;39.52;37.07;42.16;;
67308;Laerm;57662;51.436;5.978;2023-04-25T00:10:25;39.96;37.52;43.99;;
67308;Laerm;57662;51.436;5.978;2023-04-25T00:10:36;39.53;37.58;41.22;;
67308;Laerm;57662;51.436;5.978;2023-04-25T00:10:46;39.80;37.22;48.24;;
67308;Laerm;57662;51.436;5.978;2023-04-25T00:10:56;39.62;37.12;42.19;;
67308;Laerm;57662;51.436;5.978;2023-04-25T00:11:07;39.53;37.34;41.06;;
67308;Laerm;57662;51.436;5.978;2023-04-25T00:11:17;39.43;37.36;41.49;;
67308;Laerm;57662;51.436;5.978;2023-04-25T00:11:27;39.19;36.77;40.92;;
67308;Laerm;57662;51.436;5.978;2023-04-25T00:11:38;39.32;37.51;41.40;;
67308;Laerm;57662;51.436;5.978;2023-04-25T00:11:48;39.67;36.59;42.38;;
67308;Laerm;57662;51.436;5.978;2023-04-25T00:11:58;40.92;37.59;51.25;;
67308;Laerm;57662;51.436;5.978;2023-04-25T00:12:09;40.27;37.18;47.43;;
67308;Laerm;57662;51.436;5.978;2023-04-25T00:12:19;39.48;36.91;42.83;;
67308;Laerm;57662;51.436;5.978;2023-04-25T00:12:29;39.85;37.14;44.51;;
67308;Laerm;57662;51.436;5.978;2023-04-25T00:12:40;39.84;37.44;45.76;;
67308;Laerm;57662;51.436;5.978;2023-04-25T00:12:51;39.73;37.86;42.58;;
67308;Laerm;57662;51.436;5.978;2023-04-25T00:13:01;39.94;36.93;44.52;;
67308;Laerm;57662;51.436;5.978;2023-04-25T00:13:12;40.03;37.32;47.19;;
67308;Laerm;57662;51.436;5.978;2023-04-25T00:13:23;40.04;37.18;45.41;;
67308;Laerm;57662;51.436;5.978;2023-04-25T00:13:35;39.44;37.64;41.18;;
67308;Laerm;57662;51.436;5.978;2023-04-25T00:13:45;39.58;37.40;41.49;;
67308;Laerm;57662;51.436;5.978;2023-04-25T00:13:56;40.00;37.29;43.86;;
67308;Laerm;57662;51.436;5.978;2023-04-25T00:14:07;39.36;37.47;41.05;;
67308;Laerm;57662;51.436;5.978;2023-04-25T00:14:17;39.30;37.45;41.13;;
67308;Laerm;57662;51.436;5.978;2023-04-25T00:14:28;39.44;36.64;41.54;;
67308;Laerm;57662;51.436;5.978;2023-04-25T00:14:39;39.15;36.51;41.00;;
67308;Laerm;57662;51.436;5.978;2023-04-25T00:14:49;39.02;36.81;41.08;;
67308;Laerm;57662;51.436;5.978;2023-04-25T00:15:03;38.96;36.56;40.84;;
67308;Laerm;57662;51.436;5.978;2023-04-25T00:15:13;39.32;37.22;41.48;;
67308;Laerm;57662;51.436;5.978;2023-04-25T00:15:24;39.35;37.05;41.08;;
67308;Laerm;57662;51.436;5.978;2023-04-25T00:15:35;39.29;37.20;41.22;;
67308;Laerm;57662;51.436;5.978;2023-04-25T00:15:46;39.05;37.06;41.27;;
67308;Laerm;57662;51.436;5.978;2023-04-25T00:15:58;38.97;36.64;40.71;;
67308;Laerm;57662;51.436;5.978;2023-04-25T00:16:08;38.92;36.25;40.52;;
67308;Laerm;57662;51.436;5.978;2023-04-25T00:16:18;38.98;36.56;40.69;;
67308;Laerm;57662;51.436;5.978;2023-04-25T00:16:29;39.28;36.98;40.96;;
67308;Laerm;57662;51.436;5.978;2023-04-25T00:16:43;39.43;37.24;41.56;;
67308;Laerm;57662;51.436;5.978;2023-04-25T00:16:54;39.46;37.39;41.02;;
67308;Laerm;57662;51.436;5.978;2023-04-25T00:17:04;39.05;37.09;40.48;;
67308;Laerm;57662;51.436;5.978;2023-04-25T00:17:15;39.10;37.29;40.95;;
67308;Laerm;57662;51.436;5.978;2023-04-25T00:17:29;39.26;37.38;40.99;;
67308;Laerm;57662;51.436;5.978;2023-04-25T00:17:39;39.32;37.13;41.00;;
67308;Laerm;57662;51.436;5.978;2023-04-25T00:17:49;38.93;36.80;40.68;;
67308;Laerm;57662;51.436;5.978;2023-04-25T00:18:02;39.38;37.23;41.45;;
67308;Laerm;57662;51.436;5.978;2023-04-25T00:18:13;39.65;37.70;41.57;;
67308;Laerm;57662;51.436;5.978;2023-04-25T00:18:26;40.09;37.78;43.93;;
67308;Laerm;57662;51.436;5.978;2023-04-25T00:18:39;40.64;37.75;44.92;;
67308;Laerm;57662;51.436;5.978;2023-04-25T00:18:50;39.71;37.81;42.00;;
67308;Laerm;57662;51.436;5.978;2023-04-25T00:19:03;40.19;37.21;50.00;;
67308;Laerm;57662;51.436;5.978;2023-04-25T00:19:14;39.72;37.81;41.93;;
67308;Laerm;57662;51.436;5.978;2023-04-25T00:19:24;39.47;36.94;42.68;;
67308;Laerm;57662;51.436;5.978;2023-04-25T00:19:36;39.37;37.03;41.07;;
67308;Laerm;57662;51.436;5.978;2023-04-25T00:19:47;39.54;37.49;41.53;;
67308;Laerm;57662;51.436;5.978;2023-04-25T00:19:58;39.49;37.52;40.94;;
67308;Laerm;57662;51.436;5.978;2023-04-25T00:20:08;39.28;36.93;41.04;;
67308;Laerm;57662;51.436;5.978;2023-04-25T00:20:19;39.37;37.45;41.38;;
67308;Laerm;57662;51.436;5.978;2023-04-25T00:20:29;39.47;37.55;41.32;;
67308;Laerm;57662;51.436;5.978;2023-04-25T00:20:40;40.22;37.85;44.40;;
67308;Laerm;57662;51.436;5.978;2023-04-25T00:20:50;40.09;37.52;49.46;;
67308;Laerm;57662;51.436;5.978;2023-04-25T00:21:01;39.88;37.81;43.08;;
67308;Laerm;57662;51.436;5.978;2023-04-25T00:21:12;39.67;37.63;41.34;;
67308;Laerm;57662;51.436;5.978;2023-04-25T00:21:22;39.25;37.19;40.98;;
67308;Laerm;57662;51.436;5.978;2023-04-25T00:21:34;39.29;36.94;40.91;;
67308;Laerm;57662;51.436;5.978;2023-04-25T00:21:45;39.51;37.57;41.11;;
67308;Laerm;57662;51.436;5.978;2023-04-25T00:21:56;39.50;37.19;41.33;;
67308;Laerm;57662;51.436;5.978;2023-04-25T00:22:06;39.28;37.08;41.30;;
67308;Laerm;57662;51.436;5.978;2023-04-25T00:22:17;39.35;37.13;41.00;;
67308;Laerm;57662;51.436;5.978;2023-04-25T00:22:27;39.28;37.25;41.26;;
67308;Laerm;57662;51.436;5.978;2023-04-25T00:22:37;39.26;37.34;41.18;;
67308;Laerm;57662;51.436;5.978;2023-04-25T00:22:48;39.35;37.62;41.40;;
67308;Laerm;57662;51.436;5.978;2023-04-25T00:22:58;39.33;37.00;41.13;;
67308;Laerm;57662;51.436;5.978;2023-04-25T00:23:08;39.11;37.33;40.64;;
67308;Laerm;57662;51.436;5.978;2023-04-25T00:23:19;39.29;37.35;41.23;;
67308;Laerm;57662;51.436;5.978;2023-04-25T00:23:29;39.27;37.29;40.82;;
67308;Laerm;57662;51.436;5.978;2023-04-25T00:23:39;39.48;37.32;41.31;;
67308;Laerm;57662;51.436;5.978;2023-04-25T00:23:50;39.50;37.10;41.11;;
67308;Laerm;57662;51.436;5.978;2023-04-25T00:24:00;39.65;37.16;41.57;;
67308;Laerm;57662;51.436;5.978;2023-04-25T00:24:10;39.32;37.29;41.01;;
67308;Laerm;57662;51.436;5.978;2023-04-25T00:24:21;39.45;37.24;41.41;;
67308;Laerm;57662;51.436;5.978;2023-04-25T00:24:31;39.51;37.37;41.48;;
67308;Laerm;57662;51.436;5.978;2023-04-25T00:24:41;39.43;37.57;41.43;;
67308;Laerm;57662;51.436;5.978;2023-04-25T00:24:51;39.49;37.71;41.02;;
67308;Laerm;57662;51.436;5.978;2023-04-25T00:25:04;39.44;37.34;41.87;;
67308;Laerm;57662;51.436;5.978;2023-04-25T00:25:14;39.61;37.28;41.42;;
67308;Laerm;57662;51.436;5.978;2023-04-25T00:25:25;39.20;36.77;41.23;;
67308;Laerm;57662;51.436;5.978;2023-04-25T00:25:35;39.47;37.31;45.18;;
67308;Laerm;57662;51.436;5.978;2023-04-25T00:25:45;39.57;37.68;43.62;;
67308;Laerm;57662;51.436;5.978;2023-04-25T00:25:56;39.76;37.17;43.23;;
67308;Laerm;57662;51.436;5.978;2023-04-25T00:26:06;39.47;37.44;41.59;;
67308;Laerm;57662;51.436;5.978;2023-04-25T00:26:17;39.47;37.27;41.63;;
67308;Laerm;57662;51.436;5.978;2023-04-25T00:26:27;39.54;37.50;41.57;;
67308;Laerm;57662;51.436;5.978;2023-04-25T00:26:38;39.39;37.25;41.39;;
67308;Laerm;57662;51.436;5.978;2023-04-25T00:26:48;39.32;37.31;41.87;;
67308;Laerm;57662;51.436;5.978;2023-04-25T00:26:58;40.33;37.70;53.73;;
67308;Laerm;57662;51.436;5.978;2023-04-25T00:27:09;41.03;37.82;47.70;;
67308;Laerm;57662;51.436;5.978;2023-04-25T00:27:19;42.17;37.94;51.36;;
67308;Laerm;57662;51.436;5.978;2023-04-25T00:27:30;40.28;37.50;47.06;;
67308;Laerm;57662;51.436;5.978;2023-04-25T00:27:40;39.15;37.21;41.05;;
67308;Laerm;57662;51.436;5.978;2023-04-25T00:27:51;39.51;37.35;41.26;;
67308;Laerm;57662;51.436;5.978;2023-04-25T00:28:02;39.64;37.55;41.48;;
67308;Laerm;57662;51.436;5.978;2023-04-25T00:28:12;39.57;37.41;42.34;;
67308;Laerm;57662;51.436;5.978;2023-04-25T00:28:22;39.22;37.56;40.86;;
67308;Laerm;57662;51.436;5.978;2023-04-25T00:28:33;39.44;37.09;41.28;;
67308;Laerm;57662;51.436;5.978;2023-04-25T00:28:43;39.48;37.90;41.10;;
67308;Laerm;57662;51.436;5.978;2023-04-25T00:28:53;39.61;37.35;42.55;;
67308;Laerm;57662;51.436;5.978;2023-04-25T00:29:03;39.54;37.49;41.30;;
67308;Laerm;57662;51.436;5.978;2023-04-25T00:29:14;39.48;37.07;43.29;;
67308;Laerm;57662;51.436;5.978;2023-04-25T00:29:24;39.65;37.29;41.60;;
67308;Laerm;57662;51.436;5.978;2023-04-25T00:29:35;39.77;37.32;42.74;;
67308;Laerm;57662;51.436;5.978;2023-04-25T00:29:45;39.77;37.59;42.26;;
67308;Laerm;57662;51.436;5.978;2023-04-25T00:29:55;40.15;37.76;45.60;;
67308;Laerm;57662;51.436;5.978;2023-04-25T00:30:06;39.76;37.36;46.08;;
67308;Laerm;57662;51.436;5.978;2023-04-25T00:30:16;39.54;37.36;41.39;;
67308;Laerm;57662;51.436;5.978;2023-04-25T00:30:26;39.47;36.32;41.06;;
67308;Laerm;57662;51.436;5.978;2023-04-25T00:30:37;39.10;37.12;41.23;;
67308;Laerm;57662;51.436;5.978;2023-04-25T00:30:48;39.41;37.43;41.24;;
67308;Laerm;57662;51.436;5.978;2023-04-25T00:30:58;39.67;37.83;41.41;;
67308;Laerm;57662;51.436;5.978;2023-04-25T00:31:08;40.98;37.82;48.38;;
67308;Laerm;57662;51.436;5.978;2023-04-25T00:31:19;39.33;37.22;40.90;;
67308;Laerm;57662;51.436;5.978;2023-04-25T00:31:29;39.21;37.08;40.99;;
67308;Laerm;57662;51.436;5.978;2023-04-25T00:31:40;39.22;37.31;41.13;;
67308;Laerm;57662;51.436;5.978;2023-04-25T00:31:50;39.18;37.07;46.37;;
67308;Laerm;57662;51.436;5.978;2023-04-25T00:32:01;39.46;37.33;41.58;;
67308;Laerm;57662;51.436;5.978;2023-04-25T00:32:11;39.43;37.22;41.62;;
67308;Laerm;57662;51.436;5.978;2023-04-25T00:32:21;39.78;37.36;42.64;;
67308;Laerm;57662;51.436;5.978;2023-04-25T00:32:32;40.10;37.52;43.54;;
67308;Laerm;57662;51.436;5.978;2023-04-25T00:32:42;39.62;37.31;41.62;;
67308;Laerm;57662;51.436;5.978;2023-04-25T00:32:52;39.76;37.76;41.91;;
67308;Laerm;57662;51.436;5.978;2023-04-25T00:33:03;39.98;37.48;42.63;;
67308;Laerm;57662;51.436;5.978;2023-04-25T00:33:13;39.70;37.38;43.23;;
67308;Laerm;57662;51.436;5.978;2023-04-25T00:33:23;41.27;37.79;44.74;;
67308;Laerm;57662;51.436;5.978;2023-04-25T00:33:34;43.66;39.60;47.53;;
67308;Laerm;57662;51.436;5.978;2023-04-25T00:33:44;42.60;39.30;45.14;;
67308;Laerm;57662;51.436;5.978;2023-04-25T00:33:55;41.79;38.84;44.30;;
67308;Laerm;57662;51.436;5.978;2023-04-25T00:34:06;42.44;39.55;44.81;;
67308;Laerm;57662;51.436;5.978;2023-04-25T00:34:16;71.29;41.39;78.22;;
67308;Laerm;57662;51.436;5.978;2023-04-25T00:34:27;75.26;72.12;79.40;;
67308;Laerm;57662;51.436;5.978;2023-04-25T00:34:37;72.86;57.45;77.71;;
67308;Laerm;57662;51.436;5.978;2023-04-25T00:34:47;54.83;47.83;64.15;;
67308;Laerm;57662;51.436;5.978;2023-04-25T00:34:57;45.68;41.56;51.60;;
67308;Laerm;57662;51.436;5.978;2023-04-25T00:35:08;41.49;39.23;43.78;;
67308;Laerm;57662;51.436;5.978;2023-04-25T00:35:18;40.94;38.44;42.89;;
67308;Laerm;57662;51.436;5.978;2023-04-25T00:35:29;41.71;38.63;44.12;;
67308;Laerm;57662;51.436;5.978;2023-04-25T00:35:40;42.40;39.74;44.77;;
67308;Laerm;57662;51.436;5.978;2023-04-25T00:35:50;40.95;38.80;43.26;;
67308;Laerm;57662;51.436;5.978;2023-04-25T00:36:00;41.16;38.72;43.33;;
67308;Laerm;57662;51.436;5.978;2023-04-25T00:36:11;40.87;38.66;43.65;;
67308;Laerm;57662;51.436;5.978;2023-04-25T00:36:21;41.21;37.68;48.46;;
67308;Laerm;57662;51.436;5.978;2023-04-25T00:36:31;39.63;37.31;45.07;;
67308;Laerm;57662;51.436;5.978;2023-04-25T00:36:42;40.29;37.59;44.41;;
67308;Laerm;57662;51.436;5.978;2023-04-25T00:36:52;40.00;37.25;43.09;;
67308;Laerm;57662;51.436;5.978;2023-04-25T00:37:02;39.96;37.35;42.62;;
67308;Laerm;57662;51.436;5.978;2023-04-25T00:37:13;40.17;37.42;42.87;;
67308;Laerm;57662;51.436;5.978;2023-04-25T00:37:24;39.64;37.97;41.77;;
67308;Laerm;57662;51.436;5.978;2023-04-25T00:37:34;39.95;37.31;41.70;;
67308;Laerm;57662;51.436;5.978;2023-04-25T00:37:45;39.57;37.37;41.08;;
67308;Laerm;57662;51.436;5.978;2023-04-25T00:37:55;39.29;37.21;40.95;;
67308;Laerm;57662;51.436;5.978;2023-04-25T00:38:06;39.45;37.77;40.87;;
67308;Laerm;57662;51.436;5.978;2023-04-25T00:38:17;39.17;36.68;41.04;;
67308;Laerm;57662;51.436;5.978;2023-04-25T00:38:27;39.23;37.21;41.00;;
67308;Laerm;57662;51.436;5.978;2023-04-25T00:38:37;39.72;37.36;41.22;;
67308;Laerm;57662;51.436;5.978;2023-04-25T00:38:48;39.88;37.92;42.93;;
67308;Laerm;57662;51.436;5.978;2023-04-25T00:38:58;39.63;37.30;42.46;;
67308;Laerm;57662;51.436;5.978;2023-04-25T00:39:08;39.33;37.11;40.72;;
67308;Laerm;57662;51.436;5.978;2023-04-25T00:39:19;39.37;37.56;41.22;;
67308;Laerm;57662;51.436;5.978;2023-04-25T00:39:29;39.40;37.17;43.15;;
67308;Laerm;57662;51.436;5.978;2023-04-25T00:39:39;39.16;37.13;40.87;;
67308;Laerm;57662;51.436;5.978;2023-04-25T00:39:50;39.25;37.68;41.10;;
67308;Laerm;57662;51.436;5.978;2023-04-25T00:40:00;39.22;37.03;40.95;;
67308;Laerm;57662;51.436;5.978;2023-04-25T00:40:10;39.12;37.04;41.60;;
67308;Laerm;57662;51.436;5.978;2023-04-25T00:40:21;39.19;36.73;40.93;;
67308;Laerm;57662;51.436;5.978;2023-04-25T00:40:31;39.36;37.18;41.30;;
67308;Laerm;57662;51.436;5.978;2023-04-25T00:40:41;39.33;37.54;41.78;;
67308;Laerm;57662;51.436;5.978;2023-04-25T00:40:53;39.45;37.19;42.18;;
67308;Laerm;57662;51.436;5.978;2023-04-25T00:41:06;39.36;37.44;41.31;;
67308;Laerm;57662;51.436;5.978;2023-04-25T00:41:16;43.88;37.76;50.20;;
67308;Laerm;57662;51.436;5.978;2023-04-25T00:41:27;45.59;40.46;51.37;;
67308;Laerm;57662;51.436;5.978;2023-04-25T00:41:37;42.02;38.76;46.33;;
67308;Laerm;57662;51.436;5.978;2023-04-25T00:41:48;44.31;41.49;46.87;;
67308;Laerm;57662;51.436;5.978;2023-04-25T00:41:58;43.58;40.15;47.25;;
67308;Laerm;57662;51.436;5.978;2023-04-25T00:42:09;43.43;39.96;51.13;;
67308;Laerm;57662;51.436;5.978;2023-04-25T00:42:19;68.40;50.19;71.63;;
67308;Laerm;57662;51.436;5.978;2023-04-25T00:42:30;69.02;65.83;71.65;;
67308;Laerm;57662;51.436;5.978;2023-04-25T00:42:44;68.85;54.03;75.04;;
67308;Laerm;57662;51.436;5.978;2023-04-25T00:42:55;52.61;45.96;63.75;;
67308;Laerm;57662;51.436;5.978;2023-04-25T00:43:05;46.26;43.53;55.68;;
67308;Laerm;57662;51.436;5.978;2023-04-25T00:43:15;45.17;42.07;47.78;;
67308;Laerm;57662;51.436;5.978;2023-04-25T00:43:26;42.42;38.84;46.93;;
67308;Laerm;57662;51.436;5.978;2023-04-25T00:43:37;40.79;38.16;42.99;;
67308;Laerm;57662;51.436;5.978;2023-04-25T00:43:48;40.03;37.66;42.03;;
67308;Laerm;57662;51.436;5.978;2023-04-25T00:43:58;39.31;37.02;41.42;;
67308;Laerm;57662;51.436;5.978;2023-04-25T00:44:09;39.30;37.14;41.10;;
67308;Laerm;57662;51.436;5.978;2023-04-25T00:44:21;39.22;37.20;40.84;;
67308;Laerm;57662;51.436;5.978;2023-04-25T00:44:31;39.07;37.17;40.88;;
67308;Laerm;57662;51.436;5.978;2023-04-25T00:44:42;39.42;36.74;40.98;;
67308;Laerm;57662;51.436;5.978;2023-04-25T00:44:53;39.20;36.82;40.78;;
67308;Laerm;57662;51.436;5.978;2023-04-25T00:45:04;39.21;36.77;41.01;;
67308;Laerm;57662;51.436;5.978;2023-04-25T00:45:15;39.17;37.05;41.67;;
67308;Laerm;57662;51.436;5.978;2023-04-25T00:45:28;39.21;37.15;40.89;;
67308;Laerm;57662;51.436;5.978;2023-04-25T00:45:40;39.20;36.50;40.66;;
67308;Laerm;57662;51.436;5.978;2023-04-25T00:45:50;39.17;37.07;40.86;;
67308;Laerm;57662;51.436;5.978;2023-04-25T00:46:02;39.22;36.64;41.04;;
67308;Laerm;57662;51.436;5.978;2023-04-25T00:46:12;38.93;36.10;41.08;;
67308;Laerm;57662;51.436;5.978;2023-04-25T00:46:23;39.15;36.65;40.87;;
67308;Laerm;57662;51.436;5.978;2023-04-25T00:46:33;39.25;37.26;41.15;;
67308;Laerm;57662;51.436;5.978;2023-04-25T00:46:45;39.09;36.08;41.00;;
67308;Laerm;57662;51.436;5.978;2023-04-25T00:46:57;39.41;37.03;41.25;;
67308;Laerm;57662;51.436;5.978;2023-04-25T00:47:07;39.25;36.69;41.09;;
67308;Laerm;57662;51.436;5.978;2023-04-25T00:47:17;39.17;36.94;41.34;;
67308;Laerm;57662;51.436;5.978;2023-04-25T00:47:28;42.31;36.98;48.75;;
67308;Laerm;57662;51.436;5.978;2023-04-25T00:47:38;44.79;40.89;49.53;;
67308;Laerm;57662;51.436;5.978;2023-04-25T00:47:50;43.58;39.77;46.14;;
67308;Laerm;57662;51.436;5.978;2023-04-25T00:48:00;42.87;39.84;45.09;;
67308;Laerm;57662;51.436;5.978;2023-04-25T00:48:11;44.09;40.23;46.11;;
67308;Laerm;57662;51.436;5.978;2023-04-25T00:48:23;60.31;39.80;70.56;;
67308;Laerm;57662;51.436;5.978;2023-04-25T00:48:34;74.38;68.47;78.41;;
67308;Laerm;57662;51.436;5.978;2023-04-25T00:48:44;73.56;70.75;76.94;;
67308;Laerm;57662;51.436;5.978;2023-04-25T00:48:54;71.37;56.19;76.39;;
67308;Laerm;57662;51.436;5.978;2023-04-25T00:49:05;52.57;47.51;57.00;;
67308;Laerm;57662;51.436;5.978;2023-04-25T00:49:15;47.22;43.01;52.25;;
67308;Laerm;57662;51.436;5.978;2023-04-25T00:49:26;43.29;40.00;45.93;;
67308;Laerm;57662;51.436;5.978;2023-04-25T00:49:37;42.22;39.85;44.53;;
67308;Laerm;57662;51.436;5.978;2023-04-25T00:49:47;41.37;38.90;43.61;;
67308;Laerm;57662;51.436;5.978;2023-04-25T00:49:57;41.42;39.24;43.25;;
67308;Laerm;57662;51.436;5.978;2023-04-25T00:50:08;40.29;37.81;42.76;;
67308;Laerm;57662;51.436;5.978;2023-04-25T00:50:18;39.75;37.90;41.73;;
67308;Laerm;57662;51.436;5.978;2023-04-25T00:50:29;39.53;37.30;42.04;;
67308;Laerm;57662;51.436;5.978;2023-04-25T00:50:39;39.86;37.49;42.02;;
67308;Laerm;57662;51.436;5.978;2023-04-25T00:50:51;39.85;37.67;41.65;;
67308;Laerm;57662;51.436;5.978;2023-04-25T00:51:02;40.00;37.46;42.13;;
67308;Laerm;57662;51.436;5.978;2023-04-25T00:51:21;40.15;36.68;42.20;;
67308;Laerm;57662;51.436;5.978;2023-04-25T00:51:32;39.92;37.35;44.27;;
67308;Laerm;57662;51.436;5.978;2023-04-25T00:51:43;40.12;37.65;45.83;;
67308;Laerm;57662;51.436;5.978;2023-04-25T00:51:54;39.68;36.99;41.19;;
67308;Laerm;57662;51.436;5.978;2023-04-25T00:52:05;40.04;37.43;43.67;;
67308;Laerm;57662;51.436;5.978;2023-04-25T00:52:15;40.16;38.08;44.50;;
67308;Laerm;57662;51.436;5.978;2023-04-25T00:52:26;39.63;37.78;46.60;;
67308;Laerm;57662;51.436;5.978;2023-04-25T00:52:37;39.30;36.52;41.83;;
67308;Laerm;57662;51.436;5.978;2023-04-25T00:52:48;39.22;36.85;41.14;;
67308;Laerm;57662;51.436;5.978;2023-04-25T00:52:58;39.49;37.14;41.42;;
67308;Laerm;57662;51.436;5.978;2023-04-25T00:53:09;39.62;37.34;41.23;;
67308;Laerm;57662;51.436;5.978;2023-04-25T00:53:23;40.23;37.59;43.06;;
67308;Laerm;57662;51.436;5.978;2023-04-25T00:53:33;39.58;37.81;41.64;;
67308;Laerm;57662;51.436;5.978;2023-04-25T00:53:44;39.84;37.45;42.51;;
67308;Laerm;57662;51.436;5.978;2023-04-25T00:53:54;39.82;37.70;41.71;;
67308;Laerm;57662;51.436;5.978;2023-04-25T00:54:05;39.41;36.99;44.82;;
67308;Laerm;57662;51.436;5.978;2023-04-25T00:54:15;40.73;37.39;48.57;;
67308;Laerm;57662;51.436;5.978;2023-04-25T00:54:26;39.64;37.59;42.23;;
67308;Laerm;57662;51.436;5.978;2023-04-25T00:54:36;39.40;36.50;42.11;;
67308;Laerm;57662;51.436;5.978;2023-04-25T00:54:46;39.77;37.81;41.94;;
67308;Laerm;57662;51.436;5.978;2023-04-25T00:54:57;39.45;37.19;41.36;;
67308;Laerm;57662;51.436;5.978;2023-04-25T00:55:07;39.40;37.35;41.06;;
67308;Laerm;57662;51.436;5.978;2023-04-25T00:55:18;39.23;37.30;41.17;;
67308;Laerm;57662;51.436;5.978;2023-04-25T00:55:29;39.21;37.30;41.07;;
67308;Laerm;57662;51.436;5.978;2023-04-25T00:55:41;39.73;37.84;41.11;;
67308;Laerm;57662;51.436;5.978;2023-04-25T00:55:51;39.94;37.67;43.82;;
67308;Laerm;57662;51.436;5.978;2023-04-25T00:56:02;40.74;37.40;45.92;;
67308;Laerm;57662;51.436;5.978;2023-04-25T00:56:12;39.81;37.48;44.21;;
67308;Laerm;57662;51.436;5.978;2023-04-25T00:56:23;41.09;37.41;45.58;;
67308;Laerm;57662;51.436;5.978;2023-04-25T00:56:33;39.56;37.16;41.50;;
67308;Laerm;57662;51.436;5.978;2023-04-25T00:56:44;39.54;37.33;41.18;;
67308;Laerm;57662;51.436;5.978;2023-04-25T00:56:55;39.34;36.47;41.24;;
67308;Laerm;57662;51.436;5.978;2023-04-25T00:57:05;39.47;36.87;41.67;;
67308;Laerm;57662;51.436;5.978;2023-04-25T00:57:15;39.55;37.55;41.56;;
67308;Laerm;57662;51.436;5.978;2023-04-25T00:57:26;45.24;37.71;50.41;;
67308;Laerm;57662;51.436;5.978;2023-04-25T00:57:36;43.90;38.99;50.27;;
67308;Laerm;57662;51.436;5.978;2023-04-25T00:57:47;41.13;38.56;43.90;;
67308;Laerm;57662;51.436;5.978;2023-04-25T00:57:57;41.17;38.42;43.54;;
67308;Laerm;57662;51.436;5.978;2023-04-25T00:58:08;42.13;39.00;45.04;;
67308;Laerm;57662;51.436;5.978;2023-04-25T00:58:18;69.41;42.25;76.00;;
67308;Laerm;57662;51.436;5.978;2023-04-25T00:58:29;72.32;67.75;76.16;;
67308;Laerm;57662;51.436;5.978;2023-04-25T00:58:40;68.42;51.94;75.77;;
67308;Laerm;57662;51.436;5.978;2023-04-25T00:58:51;50.37;44.86;60.93;;
67308;Laerm;57662;51.436;5.978;2023-04-25T00:59:03;43.65;40.11;49.72;;
67308;Laerm;57662;51.436;5.978;2023-04-25T00:59:14;41.61;38.96;44.01;;
67308;Laerm;57662;51.436;5.978;2023-04-25T00:59:25;40.66;37.92;42.98;;
67308;Laerm;57662;51.436;5.978;2023-04-25T00:59:35;40.69;38.32;43.14;;
67308;Laerm;57662;51.436;5.978;2023-04-25T00:59:46;40.38;38.25;42.53;;
67308;Laerm;57662;51.436;5.978;2023-04-25T00:59:56;39.98;37.85;41.83;;
67308;Laerm;57662;51.436;5.978;2023-04-25T01:00:07;41.88;37.54;51.43;;